Weston, WY

03:36 MDT le 27 juillet 2016 (GMT -0600)
Gillette-Campbell County | | Change Station

Alt. 4364 ft 44.34 °N, 105.54 °W | Updated 43 minutes ago

Mostly Cloudy
Nuageux
64 ° F
Paraît 64 ° F
N
15
Vent Variable Vent de SSE

Aujourd'hui
Haut(e) -- | Bas -- ° F
--% Risque de précip.
Hier
Haut(e) -- | Bas -- ° F
Precip. -- pouce
Pression 29.94 pouce
Visibilité 10.0 Miles terrestres
Nuages Peu 6000 ft
Peu 7500 ft
Nuageux 11000 ft
Point de rosée 56 ° F
Humidité 75%
Précipitations 0.02 pouce
Profondeur de la couche neigeuse Non disponible.
5:44 AM 8:32 PM
Dernier quartier, 45% visible
METAR KGCC 270853Z AUTO 16013KT 10SM FEW060 FEW075 BKN110 18/13 A3009 RMK AO2 WSHFT 0802 LTG DSNT ALQDS RAB0756E40 TSE08 SLP137 P0002 60002 T01780133 58010 $
Pression 29.94 pouce
Visibilité 10.0 Miles terrestres
Nuages Peu 6000 ft
Peu 7500 ft
Nuageux 11000 ft
Point de rosée 56 ° F
Humidité 75%
Précipitations 0.02 pouce
Profondeur de la couche neigeuse Non disponible.
5:44 AM 8:32 PM
Dernier quartier, 45% visible
METAR KGCC 270853Z AUTO 16013KT 10SM FEW060 FEW075 BKN110 18/13 A3009 RMK AO2 WSHFT 0802 LTG DSNT ALQDS RAB0756E40 TSE08 SLP137 P0002 60002 T01780133 58010 $

10-Day Weather Forecast

Almanac

Astronomie

Jul. 27, 2016 Lever Coucher
Temps réel
Crépuscule civil
Crépuscule nautique
Crépuscule astronomique
Lune
Durée de lumière visible
Longueur du jour
Tomorrow will be .
, % of the Moon is Illuminated

Extrêmes aujourd'hui

State Highs State Lows

Community

WunderPhotos

Upload Photos

1,927,818 Photos téléchargées !

WunderBlog® & News

Nearby

Qualité de l'air

  Qualité de l'air Indice de la qualité de l'air Polluant
Not available.

Épaisseur de neige

Station Depth Altitude

Activité sismique

Ville Distance Mag. Time & Date
Minimum magnitude displayed is 2.5.

Températures des eaux côtières

Lieu Température

Stations

Stations météo à proximité

Emplacement de la station Température Refroidissement éolien Point de rosée Humidité Vent Precip. Alt. Mise à jour Type
                   

Watches & Warnings

There are currently no watches in effect.